sensor_id;sensor_type;location;lat;lon;timestamp;pressure;altitude;pressure_sealevel;temperature;humidity
79752;BME280;69234;47.446;21.636;2023-09-19T00:00:03;100359.59;;;19.73;74.13
79752;BME280;69234;47.446;21.636;2023-09-19T00:00:35;100361.28;;;19.74;73.58
79752;BME280;69234;47.446;21.636;2023-09-19T00:01:07;100352.84;;;19.68;73.22
79752;BME280;69234;47.446;21.636;2023-09-19T00:01:42;100352.09;;;19.75;72.80
79752;BME280;69234;47.446;21.636;2023-09-19T00:02:17;100340.28;;;19.67;73.51
79752;BME280;69234;47.446;21.636;2023-09-19T00:02:58;100347.41;;;19.68;73.08
79752;BME280;69234;47.446;21.636;2023-09-19T00:03:30;100351.16;;;19.67;73.49
79752;BME280;69234;47.446;21.636;2023-09-19T00:04:01;100354.16;;;19.73;73.96
79752;BME280;69234;47.446;21.636;2023-09-19T00:04:33;100340.81;;;19.63;73.61
79752;BME280;69234;47.446;21.636;2023-09-19T00:05:04;100349.91;;;19.70;74.04
79752;BME280;69234;47.446;21.636;2023-09-19T00:05:37;100357.94;;;19.71;73.07
79752;BME280;69234;47.446;21.636;2023-09-19T00:06:09;100355.00;;;19.73;72.70
79752;BME280;69234;47.446;21.636;2023-09-19T00:06:40;100356.88;;;19.73;73.36
79752;BME280;69234;47.446;21.636;2023-09-19T00:07:12;100359.81;;;19.71;73.69
79752;BME280;69234;47.446;21.636;2023-09-19T00:07:43;100345.06;;;19.65;74.04
79752;BME280;69234;47.446;21.636;2023-09-19T00:08:15;100350.13;;;19.68;74.09
79752;BME280;69234;47.446;21.636;2023-09-19T00:08:46;100352.47;;;19.71;73.48
79752;BME280;69234;47.446;21.636;2023-09-19T00:09:18;100351.63;;;19.71;73.58
79752;BME280;69234;47.446;21.636;2023-09-19T00:09:49;100355.38;;;19.70;73.86
79752;BME280;69234;47.446;21.636;2023-09-19T00:10:23;100357.09;;;19.71;74.47
79752;BME280;69234;47.446;21.636;2023-09-19T00:10:55;100345.72;;;19.67;74.01
79752;BME280;69234;47.446;21.636;2023-09-19T00:11:27;100356.22;;;19.70;74.21
79752;BME280;69234;47.446;21.636;2023-09-19T00:11:58;100342.88;;;19.61;74.51
79752;BME280;69234;47.446;21.636;2023-09-19T00:12:29;100349.06;;;19.69;73.87
79752;BME280;69234;47.446;21.636;2023-09-19T00:13:04;100348.44;;;19.67;73.58
79752;BME280;69234;47.446;21.636;2023-09-19T00:13:36;100346.56;;;19.68;73.53
79752;BME280;69234;47.446;21.636;2023-09-19T00:14:07;100348.44;;;19.67;73.67
79752;BME280;69234;47.446;21.636;2023-09-19T00:14:39;100354.34;;;19.71;74.03
79752;BME280;69234;47.446;21.636;2023-09-19T00:15:10;100339.78;;;19.64;73.09
79752;BME280;69234;47.446;21.636;2023-09-19T00:15:45;100343.53;;;19.63;73.84
79752;BME280;69234;47.446;21.636;2023-09-19T00:16:19;100355.19;;;19.71;73.63
79752;BME280;69234;47.446;21.636;2023-09-19T00:16:50;100353.03;;;19.67;74.00
79752;BME280;69234;47.446;21.636;2023-09-19T00:17:21;100350.50;;;19.65;73.28
79752;BME280;69234;47.446;21.636;2023-09-19T00:17:52;100352.19;;;19.66;73.05
79752;BME280;69234;47.446;21.636;2023-09-19T00:18:23;100347.41;;;19.68;73.93
79752;BME280;69234;47.446;21.636;2023-09-19T00:18:58;100344.00;;;19.66;73.06
79752;BME280;69234;47.446;21.636;2023-09-19T00:19:36;100339.78;;;19.64;73.88
79752;BME280;69234;47.446;21.636;2023-09-19T00:20:08;100347.41;;;19.68;73.02
79752;BME280;69234;47.446;21.636;2023-09-19T00:20:43;100349.06;;;19.69;72.28
79752;BME280;69234;47.446;21.636;2023-09-19T00:21:18;100346.34;;;19.69;72.82
79752;BME280;69234;47.446;21.636;2023-09-19T00:21:50;100339.84;;;19.70;73.04
79752;BME280;69234;47.446;21.636;2023-09-19T00:22:22;100339.84;;;19.70;72.21
79752;BME280;69234;47.446;21.636;2023-09-19T00:22:53;100330.09;;;19.61;72.62
79752;BME280;69234;47.446;21.636;2023-09-19T00:23:25;100341.94;;;19.68;72.98
79752;BME280;69234;47.446;21.636;2023-09-19T00:23:56;100339.41;;;19.67;72.92
79752;BME280;69234;47.446;21.636;2023-09-19T00:24:28;100342.41;;;19.72;73.32
79752;BME280;69234;47.446;21.636;2023-09-19T00:24:59;100335.66;;;19.68;72.55
79752;BME280;69234;47.446;21.636;2023-09-19T00:25:31;100342.59;;;19.70;72.75
79752;BME280;69234;47.446;21.636;2023-09-19T00:26:06;100332.09;;;19.67;72.38
79752;BME280;69234;47.446;21.636;2023-09-19T00:26:37;100339.84;;;19.70;72.08
79752;BME280;69234;47.446;21.636;2023-09-19T00:27:08;100338.63;;;19.73;72.27
79752;BME280;69234;47.446;21.636;2023-09-19T00:27:40;100332.34;;;19.73;72.10
79752;BME280;69234;47.446;21.636;2023-09-19T00:28:10;100333.41;;;19.71;72.20
79752;BME280;69234;47.446;21.636;2023-09-19T00:28:42;100319.69;;;19.65;72.64
79752;BME280;69234;47.446;21.636;2023-09-19T00:29:14;100328.56;;;19.74;72.15
79752;BME280;69234;47.446;21.636;2023-09-19T00:29:47;100331.03;;;19.68;72.40
79752;BME280;69234;47.446;21.636;2023-09-19T00:30:18;100331.03;;;19.68;73.19
79752;BME280;69234;47.446;21.636;2023-09-19T00:30:54;100331.03;;;19.68;73.07
79752;BME280;69234;47.446;21.636;2023-09-19T00:31:26;100318.16;;;19.62;72.38
79752;BME280;69234;47.446;21.636;2023-09-19T00:31:57;100325.59;;;19.68;72.65
79752;BME280;69234;47.446;21.636;2023-09-19T00:32:29;100315.41;;;19.62;72.17
79752;BME280;69234;47.446;21.636;2023-09-19T00:33:01;100331.44;;;19.65;72.48
79752;BME280;69234;47.446;21.636;2023-09-19T00:33:36;100326.81;;;19.66;72.21
79752;BME280;69234;47.446;21.636;2023-09-19T00:34:07;100325.97;;;19.65;72.80
79752;BME280;69234;47.446;21.636;2023-09-19T00:34:41;100325.97;;;19.65;73.12
79752;BME280;69234;47.446;21.636;2023-09-19T00:35:16;100325.78;;;19.67;72.59
79752;BME280;69234;47.446;21.636;2023-09-19T00:35:54;100318.84;;;19.64;72.57
79752;BME280;69234;47.446;21.636;2023-09-19T00:36:25;100318.84;;;19.64;72.54
79752;BME280;69234;47.446;21.636;2023-09-19T00:36:56;100315.25;;;19.64;72.05
79752;BME280;69234;47.446;21.636;2023-09-19T00:37:27;100312.03;;;19.60;72.62
79752;BME280;69234;47.446;21.636;2023-09-19T00:37:58;100315.91;;;19.66;73.06
79752;BME280;69234;47.446;21.636;2023-09-19T00:38:29;100318.16;;;19.62;71.74
79752;BME280;69234;47.446;21.636;2023-09-19T00:39:00;100318.84;;;19.64;72.89
79752;BME280;69234;47.446;21.636;2023-09-19T00:39:31;100327.47;;;19.68;72.11
79752;BME280;69234;47.446;21.636;2023-09-19T00:40:04;100319.69;;;19.65;72.43
79752;BME280;69234;47.446;21.636;2023-09-19T00:40:36;100314.22;;;19.65;73.18
79752;BME280;69234;47.446;21.636;2023-09-19T00:41:07;100313.41;;;19.64;73.11
79752;BME280;69234;47.446;21.636;2023-09-19T00:41:39;100324.38;;;19.71;71.85
79752;BME280;69234;47.446;21.636;2023-09-19T00:42:21;100312.34;;;19.65;73.02
79752;BME280;69234;47.446;21.636;2023-09-19T00:42:57;100310.66;;;19.64;71.72
79752;BME280;69234;47.446;21.636;2023-09-19T00:43:32;100305.84;;;19.66;71.67
79752;BME280;69234;47.446;21.636;2023-09-19T00:44:05;100307.75;;;19.66;71.36
79752;BME280;69234;47.446;21.636;2023-09-19T00:44:36;100307.06;;;19.64;71.73
79752;BME280;69234;47.446;21.636;2023-09-19T00:45:09;100305.00;;;19.66;72.83
79752;BME280;69234;47.446;21.636;2023-09-19T00:45:46;100285.81;;;19.59;72.08
79752;BME280;69234;47.446;21.636;2023-09-19T00:46:22;100306.91;;;19.65;71.56
79752;BME280;69234;47.446;21.636;2023-09-19T00:46:53;100302.13;;;19.67;71.99
79752;BME280;69234;47.446;21.636;2023-09-19T00:47:24;100303.78;;;19.68;71.93
79752;BME280;69234;47.446;21.636;2023-09-19T00:47:56;100295.78;;;19.67;72.55
79752;BME280;69234;47.446;21.636;2023-09-19T00:48:28;100293.28;;;19.65;71.64
79752;BME280;69234;47.446;21.636;2023-09-19T00:49:00;100297.03;;;19.64;71.42
79752;BME280;69234;47.446;21.636;2023-09-19T00:49:31;100302.75;;;19.69;71.98
79752;BME280;69234;47.446;21.636;2023-09-19T00:50:05;100298.34;;;19.68;71.87
79752;BME280;69234;47.446;21.636;2023-09-19T00:50:39;100279.81;;;19.64;71.58
79752;BME280;69234;47.446;21.636;2023-09-19T00:51:13;100301.31;;;19.74;71.72
79752;BME280;69234;47.446;21.636;2023-09-19T00:51:44;100286.16;;;19.64;72.11
79752;BME280;69234;47.446;21.636;2023-09-19T00:52:18;100300.03;;;19.69;72.38
79752;BME280;69234;47.446;21.636;2023-09-19T00:52:54;100289.50;;;19.66;71.44
79752;BME280;69234;47.446;21.636;2023-09-19T00:53:26;100289.78;;;19.71;71.33
79752;BME280;69234;47.446;21.636;2023-09-19T00:53:59;100288.94;;;19.71;72.00
79752;BME280;69234;47.446;21.636;2023-09-19T00:54:30;100292.50;;;19.71;71.45
79752;BME280;69234;47.446;21.636;2023-09-19T00:55:01;100293.53;;;19.70;71.29
79752;BME280;69234;47.446;21.636;2023-09-19T00:55:34;100288.06;;;19.70;71.31
79752;BME280;69234;47.446;21.636;2023-09-19T00:56:06;100280.09;;;19.69;71.40
79752;BME280;69234;47.446;21.636;2023-09-19T00:56:37;100287.22;;;19.70;70.85
79752;BME280;69234;47.446;21.636;2023-09-19T00:57:11;100281.59;;;19.71;70.93
79752;BME280;69234;47.446;21.636;2023-09-19T00:57:43;100290.63;;;19.72;71.39
79752;BME280;69234;47.446;21.636;2023-09-19T00:58:14;100290.63;;;19.72;70.97
79752;BME280;69234;47.446;21.636;2023-09-19T00:58:47;100285.34;;;19.70;71.15
79752;BME280;69234;47.446;21.636;2023-09-19T00:59:19;100278.88;;;19.71;71.36
79752;BME280;69234;47.446;21.636;2023-09-19T00:59:53;100278.59;;;19.66;71.29
79752;BME280;69234;47.446;21.636;2023-09-19T01:00:26;100289.13;;;19.69;71.38
79752;BME280;69234;47.446;21.636;2023-09-19T01:00:57;100279.25;;;19.68;71.68
79752;BME280;69234;47.446;21.636;2023-09-19T01:01:28;100272.97;;;19.68;70.88
79752;BME280;69234;47.446;21.636;2023-09-19T01:01:59;100286.00;;;19.73;71.92
79752;BME280;69234;47.446;21.636;2023-09-19T01:02:32;100271.81;;;19.62;72.06
79752;BME280;69234;47.446;21.636;2023-09-19T01:03:03;100278.88;;;19.71;71.76
79752;BME280;69234;47.446;21.636;2023-09-19T01:03:36;100274.00;;;19.67;71.96
79752;BME280;69234;47.446;21.636;2023-09-19T01:04:08;100272.31;;;19.66;71.49
79752;BME280;69234;47.446;21.636;2023-09-19T01:04:40;100281.59;;;19.71;71.80
79752;BME280;69234;47.446;21.636;2023-09-19T01:05:12;100280.94;;;19.69;71.64
79752;BME280;69234;47.446;21.636;2023-09-19T01:05:43;100283.50;;;19.71;72.18
79752;BME280;69234;47.446;21.636;2023-09-19T01:06:15;100281.59;;;19.71;71.54
79752;BME280;69234;47.446;21.636;2023-09-19T01:06:46;100278.22;;;19.69;71.39
79752;BME280;69234;47.446;21.636;2023-09-19T01:07:17;100278.22;;;19.69;71.11
79752;BME280;69234;47.446;21.636;2023-09-19T01:07:48;100270.88;;;19.70;71.55
79752;BME280;69234;47.446;21.636;2023-09-19T01:08:20;100275.31;;;19.71;71.27
79752;BME280;69234;47.446;21.636;2023-09-19T01:08:50;100264.81;;;19.68;71.79
79752;BME280;69234;47.446;21.636;2023-09-19T01:09:21;100266.69;;;19.67;71.16
79752;BME280;69234;47.446;21.636;2023-09-19T01:09:53;100271.94;;;19.69;71.11
79752;BME280;69234;47.446;21.636;2023-09-19T01:10:26;100273.16;;;19.66;71.92
79752;BME280;69234;47.446;21.636;2023-09-19T01:11:28;100270.72;;;19.71;71.30
79752;BME280;69234;47.446;21.636;2023-09-19T01:12:07;100264.81;;;19.68;71.23
79752;BME280;69234;47.446;21.636;2023-09-19T01:13:20;100270.72;;;19.71;71.54
79752;BME280;69234;47.446;21.636;2023-09-19T01:14:02;100274.28;;;19.72;70.71
79752;BME280;69234;47.446;21.636;2023-09-19T01:16:36;100269.88;;;19.71;71.21
79752;BME280;69234;47.446;21.636;2023-09-19T01:17:29;100255.97;;;19.66;70.20
79752;BME280;69234;47.446;21.636;2023-09-19T01:18:43;100272.00;;;19.76;70.68
79752;BME280;69234;47.446;21.636;2023-09-19T01:26:15;100264.88;;;19.75;71.54
79752;BME280;69234;47.446;21.636;2023-09-19T01:28:27;100261.09;;;19.76;70.20
79752;BME280;69234;47.446;21.636;2023-09-19T01:30:23;100258.97;;;19.71;71.73
79752;BME280;69234;47.446;21.636;2023-09-19T01:30:59;100253.06;;;19.67;71.23
79752;BME280;69234;47.446;21.636;2023-09-19T01:31:36;100244.56;;;19.62;72.30
79752;BME280;69234;47.446;21.636;2023-09-19T01:32:08;100253.91;;;19.68;71.62
79752;BME280;69234;47.446;21.636;2023-09-19T01:32:40;100254.75;;;19.68;72.10
79752;BME280;69234;47.446;21.636;2023-09-19T01:33:12;100267.31;;;19.69;72.74
79752;BME280;69234;47.446;21.636;2023-09-19T01:34:14;100259.97;;;19.70;72.04
79752;BME280;69234;47.446;21.636;2023-09-19T01:34:51;100259.34;;;19.68;71.87
79752;BME280;69234;47.446;21.636;2023-09-19T01:35:23;100250.97;;;19.69;71.98
79752;BME280;69234;47.446;21.636;2023-09-19T01:35:54;100256.03;;;19.73;72.21
79752;BME280;69234;47.446;21.636;2023-09-19T01:36:32;100259.34;;;19.68;71.46
79752;BME280;69234;47.446;21.636;2023-09-19T01:37:06;100254.34;;;19.71;71.54
79752;BME280;69234;47.446;21.636;2023-09-19T01:37:38;100243.38;;;19.65;73.08
79752;BME280;69234;47.446;21.636;2023-09-19T01:38:09;100245.25;;;19.64;72.29
79752;BME280;69234;47.446;21.636;2023-09-19T01:38:42;100250.72;;;19.64;71.85
79752;BME280;69234;47.446;21.636;2023-09-19T01:39:14;100246.94;;;19.65;72.25
79752;BME280;69234;47.446;21.636;2023-09-19T01:39:57;100235.38;;;19.63;71.60
79752;BME280;69234;47.446;21.636;2023-09-19T01:41:00;100253.69;;;19.69;71.45
79752;BME280;69234;47.446;21.636;2023-09-19T01:43:32;100248.44;;;19.68;70.48
79752;BME280;69234;47.446;21.636;2023-09-19T01:44:08;100243.63;;;19.70;70.48
79752;BME280;69234;47.446;21.636;2023-09-19T01:46:29;100246.19;;;19.71;70.41
79752;BME280;69234;47.446;21.636;2023-09-19T01:47:35;100242.16;;;19.67;70.98
79752;BME280;69234;47.446;21.636;2023-09-19T01:50:21;100242.78;;;19.69;70.75
79752;BME280;69234;47.446;21.636;2023-09-19T01:51:02;100233.78;;;19.69;70.79
79752;BME280;69234;47.446;21.636;2023-09-19T01:51:42;100245.97;;;19.73;69.59
79752;BME280;69234;47.446;21.636;2023-09-19T01:52:20;100232.94;;;19.68;69.85
79752;BME280;69234;47.446;21.636;2023-09-19T01:53:08;100239.69;;;19.73;70.21
79752;BME280;69234;47.446;21.636;2023-09-19T01:54:00;100241.34;;;19.74;70.04
79752;BME280;69234;47.446;21.636;2023-09-19T01:55:06;100235.91;;;19.74;70.54
79752;BME280;69234;47.446;21.636;2023-09-19T01:55:43;100226.06;;;19.73;69.94
79752;BME280;69234;47.446;21.636;2023-09-19T01:56:34;100229.00;;;19.71;70.56
79752;BME280;69234;47.446;21.636;2023-09-19T01:57:29;100211.53;;;19.65;70.09
79752;BME280;69234;47.446;21.636;2023-09-19T01:58:08;100223.53;;;19.71;69.66
79752;BME280;69234;47.446;21.636;2023-09-19T01:58:53;100217.03;;;19.72;69.13
79752;BME280;69234;47.446;21.636;2023-09-19T01:59:38;100219.16;;;19.77;69.75
79752;BME280;69234;47.446;21.636;2023-09-19T02:00:14;100218.13;;;19.78;68.97
79752;BME280;69234;47.446;21.636;2023-09-19T02:00:49;100215.81;;;19.75;70.27
79752;BME280;69234;47.446;21.636;2023-09-19T02:01:24;100219.00;;;19.78;68.81
79752;BME280;69234;47.446;21.636;2023-09-19T02:01:56;100204.03;;;19.74;69.57
79752;BME280;69234;47.446;21.636;2023-09-19T02:02:28;100217.09;;;19.79;69.53
79752;BME280;69234;47.446;21.636;2023-09-19T02:03:00;100207.22;;;19.78;69.34
79752;BME280;69234;47.446;21.636;2023-09-19T02:03:35;100216.06;;;19.80;69.65
79752;BME280;69234;47.446;21.636;2023-09-19T02:04:08;100213.53;;;19.78;69.14
79752;BME280;69234;47.446;21.636;2023-09-19T02:04:39;100213.34;;;19.80;69.69
79752;BME280;69234;47.446;21.636;2023-09-19T02:05:10;100226.56;;;19.83;69.04
79752;BME280;69234;47.446;21.636;2023-09-19T02:05:51;100215.41;;;19.78;68.75
79752;BME280;69234;47.446;21.636;2023-09-19T02:06:25;100213.34;;;19.80;68.85
79752;BME280;69234;47.446;21.636;2023-09-19T02:06:56;100205.38;;;19.78;69.44
79752;BME280;69234;47.446;21.636;2023-09-19T02:07:29;100200.69;;;19.72;69.10
79752;BME280;69234;47.446;21.636;2023-09-19T02:08:02;100214.84;;;19.82;69.08
79752;BME280;69234;47.446;21.636;2023-09-19T02:08:33;100203.88;;;19.76;69.31
79752;BME280;69234;47.446;21.636;2023-09-19T02:09:05;100216.72;;;19.82;68.92
79752;BME280;69234;47.446;21.636;2023-09-19T02:09:36;100217.34;;;19.84;68.46
79752;BME280;69234;47.446;21.636;2023-09-19T02:10:09;100214.84;;;19.82;68.86
79752;BME280;69234;47.446;21.636;2023-09-19T02:10:42;100215.47;;;19.84;69.20
79752;BME280;69234;47.446;21.636;2023-09-19T02:11:13;100218.00;;;19.86;68.56
79752;BME280;69234;47.446;21.636;2023-09-19T02:11:45;100211.91;;;19.84;68.13
79752;BME280;69234;47.446;21.636;2023-09-19T02:12:18;100213.78;;;19.83;68.55
79752;BME280;69234;47.446;21.636;2023-09-19T02:12:50;100216.34;;;19.85;69.56
79752;BME280;69234;47.446;21.636;2023-09-19T02:13:23;100220.75;;;19.86;69.88
79752;BME280;69234;47.446;21.636;2023-09-19T02:13:58;100215.47;;;19.84;68.35
79752;BME280;69234;47.446;21.636;2023-09-19T02:14:30;100207.50;;;19.83;67.98
79752;BME280;69234;47.446;21.636;2023-09-19T02:15:02;100202.81;;;19.77;68.11
79752;BME280;69234;47.446;21.636;2023-09-19T02:15:34;100207.94;;;19.86;68.84
79752;BME280;69234;47.446;21.636;2023-09-19T02:16:07;100200.75;;;19.79;67.84
79752;BME280;69234;47.446;21.636;2023-09-19T02:16:40;100214.22;;;19.87;68.66
79752;BME280;69234;47.446;21.636;2023-09-19T02:17:11;100214.22;;;19.87;68.59
79752;BME280;69234;47.446;21.636;2023-09-19T02:17:43;100202.88;;;19.83;68.46
79752;BME280;69234;47.446;21.636;2023-09-19T02:18:15;100210.47;;;19.88;67.77
79752;BME280;69234;47.446;21.636;2023-09-19T02:18:49;100206.06;;;19.87;67.99
79752;BME280;69234;47.446;21.636;2023-09-19T02:19:21;100191.53;;;19.80;67.64
79752;BME280;69234;47.446;21.636;2023-09-19T02:19:53;100206.72;;;19.89;67.09
79752;BME280;69234;47.446;21.636;2023-09-19T02:20:26;100215.53;;;19.91;68.02
79752;BME280;69234;47.446;21.636;2023-09-19T02:20:57;100202.94;;;19.90;67.87
79752;BME280;69234;47.446;21.636;2023-09-19T02:21:29;100209.25;;;19.90;68.19
79752;BME280;69234;47.446;21.636;2023-09-19T02:22:00;100207.75;;;19.88;68.81
79752;BME280;69234;47.446;21.636;2023-09-19T02:22:37;100205.66;;;19.90;68.06
79752;BME280;69234;47.446;21.636;2023-09-19T02:23:09;100204.00;;;19.89;68.65
79752;BME280;69234;47.446;21.636;2023-09-19T02:23:41;100203.34;;;19.87;68.47
79752;BME280;69234;47.446;21.636;2023-09-19T02:24:12;100205.88;;;19.88;67.71
79752;BME280;69234;47.446;21.636;2023-09-19T02:24:44;100209.44;;;19.89;68.15
79752;BME280;69234;47.446;21.636;2023-09-19T02:25:18;100199.16;;;19.91;67.54
79752;BME280;69234;47.446;21.636;2023-09-19T02:25:59;100206.72;;;19.89;67.90
79752;BME280;69234;47.446;21.636;2023-09-19T02:26:34;100201.66;;;19.86;68.05
79752;BME280;69234;47.446;21.636;2023-09-19T02:27:06;100204.63;;;19.91;67.72
79752;BME280;69234;47.446;21.636;2023-09-19T02:27:38;100203.34;;;19.87;68.82
79752;BME280;69234;47.446;21.636;2023-09-19T02:28:10;100202.72;;;19.85;68.57
79752;BME280;69234;47.446;21.636;2023-09-19T02:28:42;100194.06;;;19.81;67.67
79752;BME280;69234;47.446;21.636;2023-09-19T02:29:13;100194.97;;;19.88;67.92
79752;BME280;69234;47.446;21.636;2023-09-19T02:29:44;100197.50;;;19.90;68.46
79752;BME280;69234;47.446;21.636;2023-09-19T02:30:16;100199.38;;;19.89;67.59
79752;BME280;69234;47.446;21.636;2023-09-19T02:30:51;100200.22;;;19.90;68.55
79752;BME280;69234;47.446;21.636;2023-09-19T02:31:21;100198.16;;;19.92;67.79
79752;BME280;69234;47.446;21.636;2023-09-19T02:31:52;100194.56;;;19.91;67.87
79752;BME280;69234;47.446;21.636;2023-09-19T02:32:26;100192.69;;;19.92;67.79
79752;BME280;69234;47.446;21.636;2023-09-19T02:32:58;100198.16;;;19.92;67.67
79752;BME280;69234;47.446;21.636;2023-09-19T02:33:32;100196.44;;;19.91;67.37
79752;BME280;69234;47.446;21.636;2023-09-19T02:34:03;100194.78;;;19.90;68.12
79752;BME280;69234;47.446;21.636;2023-09-19T02:34:34;100195.44;;;19.92;66.91
79752;BME280;69234;47.446;21.636;2023-09-19T02:35:07;100189.53;;;19.88;67.78
79752;BME280;69234;47.446;21.636;2023-09-19T02:35:41;100187.03;;;19.93;67.02
79752;BME280;69234;47.446;21.636;2023-09-19T02:36:13;100193.31;;;19.94;67.72
79752;BME280;69234;47.446;21.636;2023-09-19T02:36:47;100189.97;;;19.92;67.12
79752;BME280;69234;47.446;21.636;2023-09-19T02:37:18;100199.44;;;19.96;67.42
79752;BME280;69234;47.446;21.636;2023-09-19T02:37:51;100185.38;;;19.92;67.21
79752;BME280;69234;47.446;21.636;2023-09-19T02:38:22;100180.34;;;19.96;67.00
79752;BME280;69234;47.446;21.636;2023-09-19T02:38:55;100184.97;;;19.95;67.46
79752;BME280;69234;47.446;21.636;2023-09-19T02:39:26;100184.09;;;19.95;67.72
79752;BME280;69234;47.446;21.636;2023-09-19T02:39:58;100188.53;;;19.96;67.35
79752;BME280;69234;47.446;21.636;2023-09-19T02:40:29;100185.53;;;19.91;67.13
79752;BME280;69234;47.446;21.636;2023-09-19T02:41:00;100195.66;;;19.97;66.51
79752;BME280;69234;47.446;21.636;2023-09-19T02:41:31;100187.69;;;19.95;66.80
79752;BME280;69234;47.446;21.636;2023-09-19T02:42:03;100191.72;;;20.00;66.42
79752;BME280;69234;47.446;21.636;2023-09-19T02:42:35;100189.16;;;19.98;66.70
79752;BME280;69234;47.446;21.636;2023-09-19T02:43:05;100189.16;;;19.98;67.01
79752;BME280;69234;47.446;21.636;2023-09-19T02:43:39;100193.22;;;20.02;66.50
79752;BME280;69234;47.446;21.636;2023-09-19T02:44:09;100191.50;;;20.01;66.08
79752;BME280;69234;47.446;21.636;2023-09-19T02:44:41;100187.94;;;20.01;66.78
79752;BME280;69234;47.446;21.636;2023-09-19T02:45:12;100192.56;;;20.00;66.52
79752;BME280;69234;47.446;21.636;2023-09-19T02:45:43;100185.22;;;20.01;65.89
79752;BME280;69234;47.446;21.636;2023-09-19T02:46:14;100192.16;;;20.03;66.72
79752;BME280;69234;47.446;21.636;2023-09-19T02:46:45;100185.66;;;20.04;66.15
79752;BME280;69234;47.446;21.636;2023-09-19T02:47:16;100188.19;;;20.06;66.39
79752;BME280;69234;47.446;21.636;2023-09-19T02:47:48;100186.72;;;20.03;65.60
79752;BME280;69234;47.446;21.636;2023-09-19T02:48:19;100170.47;;;19.95;65.79
79752;BME280;69234;47.446;21.636;2023-09-19T02:48:51;100175.91;;;19.95;66.84
79752;BME280;69234;47.446;21.636;2023-09-19T02:49:21;100165.00;;;19.95;65.33
79752;BME280;69234;47.446;21.636;2023-09-19T02:49:52;100165.69;;;19.97;65.52
79752;BME280;69234;47.446;21.636;2023-09-19T02:50:24;100186.09;;;20.08;65.45
79752;BME280;69234;47.446;21.636;2023-09-19T02:50:55;100183.19;;;20.09;65.37
79752;BME280;69234;47.446;21.636;2023-09-19T02:51:26;100178.75;;;20.08;64.78
79752;BME280;69234;47.446;21.636;2023-09-19T02:51:57;100183.81;;;20.11;65.21
79752;BME280;69234;47.446;21.636;2023-09-19T02:52:29;100181.69;;;20.07;65.58
79752;BME280;69234;47.446;21.636;2023-09-19T02:53:00;100167.78;;;20.02;64.86
79752;BME280;69234;47.446;21.636;2023-09-19T02:53:31;100172.41;;;20.01;64.64
79752;BME280;69234;47.446;21.636;2023-09-19T02:54:02;100187.38;;;20.12;64.89
79752;BME280;69234;47.446;21.636;2023-09-19T02:54:34;100191.38;;;20.09;65.62
79752;BME280;69234;47.446;21.636;2023-09-19T02:55:05;100186.31;;;20.06;65.89
79752;BME280;69234;47.446;21.636;2023-09-19T02:55:39;100181.03;;;20.05;65.51
79752;BME280;69234;47.446;21.636;2023-09-19T02:56:11;100184.22;;;20.08;64.77
79752;BME280;69234;47.446;21.636;2023-09-19T02:56:44;100181.50;;;20.08;65.00
79752;BME280;69234;47.446;21.636;2023-09-19T02:57:15;100176.63;;;20.04;64.65
79752;BME280;69234;47.446;21.636;2023-09-19T02:58:07;100175.84;;;20.10;65.34
79752;BME280;69234;47.446;21.636;2023-09-19T02:58:45;100181.09;;;20.11;64.76
79752;BME280;69234;47.446;21.636;2023-09-19T02:59:16;100181.75;;;20.13;64.67
79752;BME280;69234;47.446;21.636;2023-09-19T02:59:47;100181.09;;;20.11;64.77
79752;BME280;69234;47.446;21.636;2023-09-19T03:00:20;100176.69;;;20.10;64.56
79752;BME280;69234;47.446;21.636;2023-09-19T03:00:51;100183.44;;;20.14;64.01
79752;BME280;69234;47.446;21.636;2023-09-19T03:01:23;100169.34;;;20.11;64.11
79752;BME280;69234;47.446;21.636;2023-09-19T03:01:54;100171.03;;;20.12;64.08
79752;BME280;69234;47.446;21.636;2023-09-19T03:02:25;100169.13;;;20.12;64.75
79752;BME280;69234;47.446;21.636;2023-09-19T03:02:58;100172.53;;;20.14;64.23
79752;BME280;69234;47.446;21.636;2023-09-19T03:03:30;100169.78;;;20.14;64.33
79752;BME280;69234;47.446;21.636;2023-09-19T03:04:01;100167.06;;;20.14;64.40
79752;BME280;69234;47.446;21.636;2023-09-19T03:04:33;100171.28;;;20.17;64.04
79752;BME280;69234;47.446;21.636;2023-09-19T03:05:06;100161.81;;;20.13;64.01
79752;BME280;69234;47.446;21.636;2023-09-19T03:05:38;100166.88;;;20.16;64.02
79752;BME280;69234;47.446;21.636;2023-09-19T03:06:09;100160.38;;;20.17;64.41
79752;BME280;69234;47.446;21.636;2023-09-19T03:06:40;100165.41;;;20.13;64.04
79752;BME280;69234;47.446;21.636;2023-09-19T03:07:11;100168.34;;;20.18;63.00
79752;BME280;69234;47.446;21.636;2023-09-19T03:07:42;100169.41;;;20.17;64.18
79752;BME280;69234;47.446;21.636;2023-09-19T03:08:14;100163.72;;;20.19;63.71
79752;BME280;69234;47.446;21.636;2023-09-19T03:08:48;100165.22;;;20.22;63.40
79752;BME280;69234;47.446;21.636;2023-09-19T03:09:22;100161.66;;;20.21;63.99
79752;BME280;69234;47.446;21.636;2023-09-19T03:09:54;100165.63;;;20.18;63.33
79752;BME280;69234;47.446;21.636;2023-09-19T03:10:26;100156.22;;;20.21;63.42
79752;BME280;69234;47.446;21.636;2023-09-19T03:10:58;100171.34;;;20.24;63.11
79752;BME280;69234;47.446;21.636;2023-09-19T03:11:31;100161.22;;;20.17;63.36
79752;BME280;69234;47.446;21.636;2023-09-19T03:12:03;100167.34;;;20.19;64.06
79752;BME280;69234;47.446;21.636;2023-09-19T03:12:35;100169.63;;;20.23;64.30